createdAt,value
2019-06-01T00:01:29.480Z,14.28
2019-06-01T00:06:32.822Z,14.58
2019-06-01T00:11:34.554Z,20.97
2019-06-01T00:16:37.332Z,16.30
2019-06-01T00:21:38.616Z,23.20
2019-06-01T00:26:43.625Z,20.12
2019-06-01T00:31:45.336Z,20.80
2019-06-01T00:36:47.827Z,16.67
2019-06-01T00:41:52.404Z,14.13
2019-06-01T00:46:54.423Z,15.83
2019-06-01T00:51:55.760Z,14.80
2019-06-01T00:56:57.015Z,16.65
2019-06-01T01:02:00.246Z,14.85
2019-06-01T01:07:01.905Z,16.85
2019-06-01T01:12:03.397Z,26.97
2019-06-01T01:17:04.808Z,20.62
2019-06-01T01:22:06.206Z,18.17
2019-06-01T01:27:07.611Z,16.65
2019-06-01T01:32:09.087Z,16.17
2019-06-01T01:37:11.001Z,16.20
2019-06-01T01:42:12.378Z,16.23
2019-06-01T01:47:14.443Z,21.12
2019-06-01T01:52:16.947Z,18.62
2019-06-01T01:57:18.225Z,16.73
2019-06-01T02:02:19.488Z,18.05
2019-06-01T02:07:20.779Z,20.80
2019-06-01T02:12:22.061Z,20.95
2019-06-01T02:17:23.420Z,18.70
2019-06-01T02:22:24.759Z,16.75
2019-06-01T02:27:26.122Z,21.42
2019-06-01T02:32:27.455Z,20.12
2019-06-01T02:37:28.751Z,20.55
2019-06-01T02:42:30.038Z,20.37
2019-06-01T02:47:31.661Z,19.45
2019-06-01T02:52:33.028Z,18.62
2019-06-01T02:57:34.424Z,19.48
2019-06-01T03:02:36.466Z,23.98
2019-06-01T03:07:41.239Z,26.02
2019-06-01T03:12:44.033Z,24.67
2019-06-01T03:17:49.961Z,28.07
2019-06-01T03:22:51.788Z,25.43
2019-06-01T03:27:56.940Z,21.68
2019-06-01T03:32:58.326Z,25.95
2019-06-01T03:38:00.838Z,23.75
2019-06-01T03:43:04.412Z,26.85
2019-06-01T03:48:08.703Z,26.95
2019-06-01T03:53:12.388Z,32.83
2019-06-01T03:58:13.900Z,27.45
2019-06-01T04:03:15.393Z,27.58
2019-06-01T04:08:17.488Z,29.25
2019-06-01T04:13:19.126Z,28.02
2019-06-01T04:18:21.103Z,25.90
2019-06-01T04:23:24.361Z,28.17
2019-06-01T04:28:25.611Z,27.13
2019-06-01T04:33:26.942Z,29.07
2019-06-01T04:38:28.609Z,30.40
2019-06-01T04:43:30.322Z,28.75
2019-06-01T04:48:32.042Z,28.40
2019-06-01T04:53:33.434Z,32.08
2019-06-01T04:58:34.966Z,33.80
2019-06-01T05:03:37.015Z,30.80
2019-06-01T05:08:38.277Z,32.38
2019-06-01T05:13:41.488Z,30.65
2019-06-01T05:18:43.110Z,31.00
2019-06-01T05:23:44.371Z,31.87
2019-06-01T05:28:46.107Z,26.07
2019-06-01T05:33:47.441Z,29.02
2019-06-01T05:38:50.750Z,25.30
2019-06-01T05:43:52.153Z,25.02
2019-06-01T05:48:53.508Z,25.82
2019-06-01T05:53:55.353Z,26.82
2019-06-01T05:58:56.811Z,24.85
2019-06-01T06:04:01.488Z,25.75
2019-06-01T06:09:07.084Z,24.30
2019-06-01T06:14:08.605Z,24.52
2019-06-01T06:19:10.294Z,24.52
2019-06-01T06:24:12.196Z,23.65
2019-06-01T06:29:14.666Z,21.33
2019-06-01T06:34:17.457Z,23.38
2019-06-01T06:39:19.936Z,22.70
2019-06-01T06:44:22.588Z,24.52
2019-06-01T06:49:25.323Z,24.40
2019-06-01T06:54:26.765Z,23.00
2019-06-01T06:59:28.226Z,18.87
2019-06-01T07:04:29.547Z,21.90
2019-06-01T07:09:35.437Z,19.48
2019-06-01T07:14:36.848Z,18.25
2019-06-01T07:19:38.237Z,15.32
2019-06-01T07:24:39.537Z,15.95
2019-06-01T07:29:40.829Z,15.53
2019-06-01T07:34:43.028Z,14.28
2019-06-01T07:39:44.720Z,14.35
2019-06-01T07:44:46.077Z,12.82
2019-06-01T07:49:47.602Z,13.03
2019-06-01T07:54:48.898Z,14.50
2019-06-01T07:59:50.675Z,13.28
2019-06-01T08:04:54.360Z,15.40
2019-06-01T08:09:55.180Z,17.32
2019-06-01T08:14:56.473Z,15.90
2019-06-01T08:19:57.808Z,14.80
2019-06-01T08:24:59.055Z,15.05
2019-06-01T08:30:00.401Z,14.45
2019-06-01T08:35:08.752Z,12.98
2019-06-01T08:40:06.799Z,12.70
2019-06-01T08:45:08.780Z,14.10
2019-06-01T08:50:11.017Z,16.95
2019-06-01T08:55:12.683Z,15.83
2019-06-01T09:00:14.985Z,14.85
2019-06-01T09:05:24.364Z,14.15
2019-06-01T09:10:19.648Z,14.65
2019-06-01T09:15:21.018Z,11.85
2019-06-01T09:20:22.328Z,10.38
2019-06-01T09:25:23.726Z,10.88
2019-06-01T09:30:27.950Z,11.53
2019-06-01T09:35:47.746Z,14.05
2019-06-01T09:40:33.504Z,11.30
2019-06-01T09:45:36.292Z,11.63
2019-06-01T09:50:39.706Z,12.85
2019-06-01T09:55:44.098Z,12.25
2019-06-01T10:00:49.278Z,12.65
2019-06-01T10:06:01.320Z,12.63
2019-06-01T10:10:54.290Z,10.45
2019-06-01T10:15:55.560Z,14.65
2019-06-01T10:20:56.874Z,11.88
2019-06-01T10:25:58.141Z,11.15
2019-06-01T10:30:59.410Z,13.98
2019-06-01T10:36:18.643Z,13.72
2019-06-01T10:41:04.545Z,13.95
2019-06-01T10:46:05.853Z,11.18
2019-06-01T10:51:07.137Z,9.83
2019-06-01T10:56:08.415Z,11.60
2019-06-01T11:01:09.843Z,12.60
2019-06-01T11:06:12.396Z,13.90
2019-06-01T11:11:13.740Z,13.72
2019-06-01T11:16:15.060Z,15.05
2019-06-01T11:21:16.341Z,16.95
2019-06-01T11:26:17.621Z,16.97
2019-06-01T11:31:18.910Z,15.18
2019-06-01T11:36:20.235Z,12.93
2019-06-01T11:41:21.709Z,12.03
2019-06-01T11:46:24.930Z,16.62
2019-06-01T11:51:26.237Z,13.53
2019-06-01T11:56:27.481Z,11.83
2019-06-01T12:01:28.783Z,10.78
2019-06-01T12:12:08.235Z,10.75
2019-06-01T12:17:09.570Z,13.90
2019-06-01T12:22:10.880Z,11.40
2019-06-01T12:27:12.191Z,15.00
2019-06-01T12:32:15.370Z,12.43
2019-06-01T12:37:36.106Z,9.73
2019-06-01T12:42:21.895Z,10.08
2019-06-01T12:47:23.203Z,8.83
2019-06-01T12:52:24.833Z,7.90
2019-06-01T12:57:26.421Z,8.33
2019-06-01T13:02:27.878Z,7.62
2019-06-01T13:07:29.210Z,8.10
2019-06-01T13:12:30.639Z,6.65
2019-06-01T13:17:32.277Z,5.58
2019-06-01T13:22:34.133Z,5.45
2019-06-01T13:27:35.913Z,10.00
2019-06-01T13:32:37.321Z,7.45
2019-06-01T13:37:39.331Z,7.47
2019-06-01T13:42:42.951Z,6.35
2019-06-01T13:47:45.386Z,9.25
2019-06-01T13:52:48.194Z,5.33
2019-06-01T13:57:50.438Z,5.22
2019-06-01T14:02:55.877Z,6.83
2019-06-01T14:07:59.592Z,3.92
2019-06-01T14:13:05.177Z,6.90
2019-06-01T14:18:07.824Z,5.00
2019-06-01T14:23:12.325Z,5.83
2019-06-01T14:28:13.616Z,5.83
2019-06-01T14:33:17.220Z,5.95
2019-06-01T14:38:18.511Z,6.42
2019-06-01T14:43:19.816Z,6.75
2019-06-01T14:48:23.150Z,5.15
2019-06-01T14:53:27.731Z,5.45
2019-06-01T14:58:29.046Z,5.83
2019-06-01T15:03:30.361Z,4.53
2019-06-01T15:08:31.630Z,5.08
2019-06-01T15:13:32.947Z,7.15
2019-06-01T15:18:34.548Z,5.30
2019-06-01T15:23:35.845Z,4.58
2019-06-01T15:28:37.304Z,4.83
2019-06-01T15:33:38.563Z,6.30
2019-06-01T15:38:40.115Z,4.78
2019-06-01T15:43:41.614Z,4.87
2019-06-01T15:48:46.759Z,4.30
2019-06-01T15:53:48.234Z,7.03
2019-06-01T15:58:53.601Z,4.40
2019-06-01T16:03:53.225Z,6.75
2019-06-01T16:08:55.247Z,5.53
2019-06-01T16:13:57.652Z,4.80
2019-06-01T16:19:04.063Z,10.48
2019-06-01T16:24:05.022Z,20.90
2019-06-01T16:29:12.133Z,12.30
2019-06-01T16:39:35.000Z,12.37
2019-06-01T16:44:38.578Z,13.22
2019-06-01T16:49:42.600Z,19.48
2019-06-01T16:54:46.832Z,12.28
2019-06-01T16:59:48.537Z,11.57
2019-06-01T17:04:51.693Z,10.32
2019-06-01T17:09:56.649Z,12.15
2019-06-01T17:14:58.887Z,13.75
2019-06-01T17:20:01.155Z,10.95
2019-06-01T17:25:05.854Z,10.65
2019-06-01T17:30:12.137Z,11.12
2019-06-01T17:35:13.854Z,10.03
2019-06-01T17:40:18.218Z,12.80
2019-06-01T17:45:21.630Z,15.70
2019-06-01T17:50:23.418Z,14.03
2019-06-01T17:55:30.555Z,16.70
2019-06-01T18:00:32.129Z,14.13
2019-06-01T18:05:34.856Z,14.83
2019-06-01T18:10:52.720Z,12.20
2019-06-01T18:15:42.060Z,14.40
2019-06-01T18:20:43.568Z,14.60
2019-06-01T18:25:45.173Z,13.45
2019-06-01T18:30:49.185Z,12.25
2019-06-01T18:35:50.771Z,14.03
2019-06-01T18:41:06.496Z,10.13
2019-06-01T18:46:08.274Z,10.71
2019-06-01T18:51:10.223Z,10.93
2019-06-01T18:56:12.414Z,7.72
2019-06-01T19:01:14.794Z,8.33
2019-06-01T19:06:16.201Z,7.80
2019-06-01T19:11:34.748Z,7.58
2019-06-01T19:16:33.686Z,6.72
2019-06-01T19:21:35.633Z,7.15
2019-06-01T19:26:37.880Z,7.75
2019-06-01T19:31:39.726Z,8.28
2019-06-01T19:36:44.030Z,10.28
2019-06-01T19:41:46.039Z,7.35
2019-06-01T19:46:47.398Z,6.72
2019-06-01T19:51:48.669Z,7.87
2019-06-01T19:56:50.186Z,11.73
2019-06-01T20:01:51.463Z,7.12
2019-06-01T20:06:52.846Z,10.60
2019-06-01T20:12:02.015Z,10.82
2019-06-01T20:16:57.519Z,7.87
2019-06-01T20:22:17.312Z,13.60
2019-06-01T20:27:19.537Z,9.20
2019-06-01T20:32:22.184Z,12.47
2019-06-01T20:37:24.239Z,11.68
2019-06-01T20:42:31.733Z,10.20
2019-06-01T20:47:29.747Z,9.15
2019-06-01T20:52:31.270Z,9.95
2019-06-01T20:57:32.597Z,11.83
2019-06-01T21:02:33.884Z,13.13
2019-06-01T21:07:37.220Z,12.00
2019-06-01T21:12:46.265Z,10.15
2019-06-01T21:17:42.173Z,11.20
2019-06-01T21:22:43.841Z,11.88
2019-06-01T21:27:45.900Z,10.03
2019-06-01T21:32:47.275Z,11.38
2019-06-01T21:37:48.870Z,13.85
2019-06-01T21:43:02.772Z,12.58
2019-06-01T21:47:53.737Z,11.73
2019-06-01T21:52:55.060Z,11.43
2019-06-01T21:57:56.327Z,11.78
2019-06-01T22:02:57.678Z,16.15
2019-06-01T22:08:00.871Z,12.58
2019-06-01T22:13:17.517Z,16.62
2019-06-01T22:18:05.881Z,16.80
2019-06-01T22:23:11.480Z,14.25
2019-06-01T22:28:11.153Z,12.88
2019-06-01T22:33:12.481Z,21.10
2019-06-01T22:38:13.809Z,15.20
2019-06-01T22:43:15.096Z,15.80
2019-06-01T22:48:20.437Z,17.17
2019-06-01T22:53:22.495Z,17.32
2019-06-01T22:58:27.396Z,19.17
2019-06-01T23:03:30.404Z,20.23
2019-06-01T23:08:31.982Z,16.77
2019-06-01T23:13:34.113Z,21.00
2019-06-01T23:18:35.377Z,25.90
2019-06-01T23:23:36.675Z,23.95
2019-06-01T23:28:38.881Z,23.30
2019-06-01T23:33:41.653Z,25.35
2019-06-01T23:38:42.896Z,28.35
2019-06-01T23:43:45.682Z,23.73
2019-06-01T23:48:46.962Z,28.77
2019-06-01T23:53:48.331Z,24.80
2019-06-01T23:58:49.651Z,27.22
